sensor_id;sensor_type;location;lat;lon;timestamp;temperature;humidity
68578;SHT31;61668;45.388;11.784;2023-04-15T00:01:22;8.59;80.50
68578;SHT31;61668;45.388;11.784;2023-04-15T00:03:50;8.55;80.55
68578;SHT31;61668;45.388;11.784;2023-04-15T00:06:17;8.52;80.66
68578;SHT31;61668;45.388;11.784;2023-04-15T00:08:44;8.48;80.83
68578;SHT31;61668;45.388;11.784;2023-04-15T00:11:11;8.45;80.98
68578;SHT31;61668;45.388;11.784;2023-04-15T00:13:37;8.40;81.16
68578;SHT31;61668;45.388;11.784;2023-04-15T00:16:03;8.36;81.33
68578;SHT31;61668;45.388;11.784;2023-04-15T00:18:32;8.32;81.42
68578;SHT31;61668;45.388;11.784;2023-04-15T00:20:59;8.29;81.50
68578;SHT31;61668;45.388;11.784;2023-04-15T00:23:24;8.27;81.45
68578;SHT31;61668;45.388;11.784;2023-04-15T00:25:50;8.23;81.41
68578;SHT31;61668;45.388;11.784;2023-04-15T00:28:16;8.21;81.49
68578;SHT31;61668;45.388;11.784;2023-04-15T00:30:43;8.17;81.45
68578;SHT31;61668;45.388;11.784;2023-04-15T00:33:10;8.14;81.42
68578;SHT31;61668;45.388;11.784;2023-04-15T00:35:36;8.10;81.32
68578;SHT31;61668;45.388;11.784;2023-04-15T00:38:02;8.08;81.31
68578;SHT31;61668;45.388;11.784;2023-04-15T00:40:30;8.04;81.36
68578;SHT31;61668;45.388;11.784;2023-04-15T00:42:56;8.00;81.31
68578;SHT31;61668;45.388;11.784;2023-04-15T00:45:21;7.97;81.30
68578;SHT31;61668;45.388;11.784;2023-04-15T00:47:48;7.94;81.30
68578;SHT31;61668;45.388;11.784;2023-04-15T00:50:15;7.91;81.30
68578;SHT31;61668;45.388;11.784;2023-04-15T00:52:41;7.89;81.27
68578;SHT31;61668;45.388;11.784;2023-04-15T00:55:07;7.87;81.29
68578;SHT31;61668;45.388;11.784;2023-04-15T00:57:34;7.84;81.30
68578;SHT31;61668;45.388;11.784;2023-04-15T01:00:00;7.80;81.30
68578;SHT31;61668;45.388;11.784;2023-04-15T01:02:28;7.76;81.23
68578;SHT31;61668;45.388;11.784;2023-04-15T01:04:56;7.74;81.25
68578;SHT31;61668;45.388;11.784;2023-04-15T01:07:22;7.70;81.28
68578;SHT31;61668;45.388;11.784;2023-04-15T01:09:48;7.68;81.30
68578;SHT31;61668;45.388;11.784;2023-04-15T01:12:13;7.65;81.38
68578;SHT31;61668;45.388;11.784;2023-04-15T01:14:41;7.62;81.52
68578;SHT31;61668;45.388;11.784;2023-04-15T01:17:07;7.58;81.61
68578;SHT31;61668;45.388;11.784;2023-04-15T01:19:35;7.54;81.61
68578;SHT31;61668;45.388;11.784;2023-04-15T01:22:02;7.50;81.61
68578;SHT31;61668;45.388;11.784;2023-04-15T01:24:29;7.47;81.68
68578;SHT31;61668;45.388;11.784;2023-04-15T01:26:57;7.44;81.70
68578;SHT31;61668;45.388;11.784;2023-04-15T01:29:23;7.41;81.74
68578;SHT31;61668;45.388;11.784;2023-04-15T01:31:52;7.37;81.85
68578;SHT31;61668;45.388;11.784;2023-04-15T01:34:20;7.32;81.90
68578;SHT31;61668;45.388;11.784;2023-04-15T01:36:46;7.29;81.97
68578;SHT31;61668;45.388;11.784;2023-04-15T01:39:12;7.24;82.00
68578;SHT31;61668;45.388;11.784;2023-04-15T01:41:38;7.20;82.09
68578;SHT31;61668;45.388;11.784;2023-04-15T01:44:05;7.16;82.21
68578;SHT31;61668;45.388;11.784;2023-04-15T01:46:31;7.13;82.34
68578;SHT31;61668;45.388;11.784;2023-04-15T01:48:57;7.10;82.50
68578;SHT31;61668;45.388;11.784;2023-04-15T01:51:23;7.07;82.66
68578;SHT31;61668;45.388;11.784;2023-04-15T01:53:48;7.05;82.77
68578;SHT31;61668;45.388;11.784;2023-04-15T01:56:14;7.01;82.83
68578;SHT31;61668;45.388;11.784;2023-04-15T01:58:40;7.00;82.92
68578;SHT31;61668;45.388;11.784;2023-04-15T02:01:06;6.98;83.00
68578;SHT31;61668;45.388;11.784;2023-04-15T02:03:32;6.95;83.05
68578;SHT31;61668;45.388;11.784;2023-04-15T02:05:57;6.95;83.16
68578;SHT31;61668;45.388;11.784;2023-04-15T02:08:23;6.92;83.29
68578;SHT31;61668;45.388;11.784;2023-04-15T02:10:49;6.90;83.49
68578;SHT31;61668;45.388;11.784;2023-04-15T02:13:15;6.90;83.65
68578;SHT31;61668;45.388;11.784;2023-04-15T02:15:45;6.87;83.96
68578;SHT31;61668;45.388;11.784;2023-04-15T02:18:13;6.85;84.08
68578;SHT31;61668;45.388;11.784;2023-04-15T02:20:41;6.84;84.10
68578;SHT31;61668;45.388;11.784;2023-04-15T02:23:08;6.82;84.09
68578;SHT31;61668;45.388;11.784;2023-04-15T02:25:35;6.81;84.11
68578;SHT31;61668;45.388;11.784;2023-04-15T02:28:03;6.79;84.19
68578;SHT31;61668;45.388;11.784;2023-04-15T02:30:30;6.79;84.31
68578;SHT31;61668;45.388;11.784;2023-04-15T02:32:57;6.77;84.39
68578;SHT31;61668;45.388;11.784;2023-04-15T02:35:24;6.76;84.40
68578;SHT31;61668;45.388;11.784;2023-04-15T02:37:50;6.76;84.40
68578;SHT31;61668;45.388;11.784;2023-04-15T02:40:16;6.75;84.40
68578;SHT31;61668;45.388;11.784;2023-04-15T02:42:43;6.74;84.30
68578;SHT31;61668;45.388;11.784;2023-04-15T02:45:09;6.70;84.17
68578;SHT31;61668;45.388;11.784;2023-04-15T02:47:38;6.65;84.10
68578;SHT31;61668;45.388;11.784;2023-04-15T02:50:06;6.62;84.13
68578;SHT31;61668;45.388;11.784;2023-04-15T02:52:35;6.58;84.25
68578;SHT31;61668;45.388;11.784;2023-04-15T02:55:01;6.55;84.36
68578;SHT31;61668;45.388;11.784;2023-04-15T02:57:28;6.52;84.38
68578;SHT31;61668;45.388;11.784;2023-04-15T02:59:54;6.49;84.42
68578;SHT31;61668;45.388;11.784;2023-04-15T03:02:19;6.47;84.52
68578;SHT31;61668;45.388;11.784;2023-04-15T03:04:45;6.44;84.67
68578;SHT31;61668;45.388;11.784;2023-04-15T03:07:11;6.43;84.80
68578;SHT31;61668;45.388;11.784;2023-04-15T03:09:37;6.42;84.89
68578;SHT31;61668;45.388;11.784;2023-04-15T03:12:05;6.40;85.00
68578;SHT31;61668;45.388;11.784;2023-04-15T03:14:31;6.40;85.03
68578;SHT31;61668;45.388;11.784;2023-04-15T03:16:56;6.39;85.02
68578;SHT31;61668;45.388;11.784;2023-04-15T03:19:23;6.37;85.04
68578;SHT31;61668;45.388;11.784;2023-04-15T03:21:50;6.36;85.10
68578;SHT31;61668;45.388;11.784;2023-04-15T03:24:16;6.34;85.13
68578;SHT31;61668;45.388;11.784;2023-04-15T03:26:42;6.34;85.26
68578;SHT31;61668;45.388;11.784;2023-04-15T03:29:08;6.32;85.30
68578;SHT31;61668;45.388;11.784;2023-04-15T03:31:34;6.32;85.30
68578;SHT31;61668;45.388;11.784;2023-04-15T03:34:00;6.31;85.36
68578;SHT31;61668;45.388;11.784;2023-04-15T03:36:27;6.29;85.39
68578;SHT31;61668;45.388;11.784;2023-04-15T03:38:56;6.29;85.41
68578;SHT31;61668;45.388;11.784;2023-04-15T03:41:21;6.28;85.41
68578;SHT31;61668;45.388;11.784;2023-04-15T03:43:47;6.27;85.41
68578;SHT31;61668;45.388;11.784;2023-04-15T03:46:16;6.25;85.49
68578;SHT31;61668;45.388;11.784;2023-04-15T03:48:42;6.25;85.59
68578;SHT31;61668;45.388;11.784;2023-04-15T03:51:08;6.24;85.68
68578;SHT31;61668;45.388;11.784;2023-04-15T03:53:34;6.22;85.71
68578;SHT31;61668;45.388;11.784;2023-04-15T03:56:00;6.22;85.77
68578;SHT31;61668;45.388;11.784;2023-04-15T03:58:26;6.20;85.81
68578;SHT31;61668;45.388;11.784;2023-04-15T04:00:52;6.21;85.80
68578;SHT31;61668;45.388;11.784;2023-04-15T04:03:19;6.20;85.84
68578;SHT31;61668;45.388;11.784;2023-04-15T04:05:45;6.19;85.90
68578;SHT31;61668;45.388;11.784;2023-04-15T04:08:11;6.20;85.92
68578;SHT31;61668;45.388;11.784;2023-04-15T04:10:40;6.18;86.00
68578;SHT31;61668;45.388;11.784;2023-04-15T04:13:06;6.19;86.06
68578;SHT31;61668;45.388;11.784;2023-04-15T04:15:32;6.20;86.11
68578;SHT31;61668;45.388;11.784;2023-04-15T04:17:58;6.18;86.10
68578;SHT31;61668;45.388;11.784;2023-04-15T04:20:23;6.19;86.17
68578;SHT31;61668;45.388;11.784;2023-04-15T04:22:49;6.18;86.17
68578;SHT31;61668;45.388;11.784;2023-04-15T04:25:15;6.19;86.19
68578;SHT31;61668;45.388;11.784;2023-04-15T04:27:41;6.18;86.22
68578;SHT31;61668;45.388;11.784;2023-04-15T04:30:07;6.18;86.20
68578;SHT31;61668;45.388;11.784;2023-04-15T04:32:33;6.17;86.20
68578;SHT31;61668;45.388;11.784;2023-04-15T04:34:59;6.18;86.20
68578;SHT31;61668;45.388;11.784;2023-04-15T04:37:25;6.16;86.16
68578;SHT31;61668;45.388;11.784;2023-04-15T04:39:51;6.16;86.15
68578;SHT31;61668;45.388;11.784;2023-04-15T04:42:16;6.17;86.20
68578;SHT31;61668;45.388;11.784;2023-04-15T04:44:42;6.17;86.20
68578;SHT31;61668;45.388;11.784;2023-04-15T04:47:08;6.18;86.20
68578;SHT31;61668;45.388;11.784;2023-04-15T04:49:34;6.19;86.25
68578;SHT31;61668;45.388;11.784;2023-04-15T04:51:59;6.19;86.21
68578;SHT31;61668;45.388;11.784;2023-04-15T04:54:25;6.20;86.27
68578;SHT31;61668;45.388;11.784;2023-04-15T04:56:51;6.20;86.20
68578;SHT31;61668;45.388;11.784;2023-04-15T04:59:17;6.22;86.20
68578;SHT31;61668;45.388;11.784;2023-04-15T05:01:43;6.24;86.20
68578;SHT31;61668;45.388;11.784;2023-04-15T05:04:09;6.25;86.16
68578;SHT31;61668;45.388;11.784;2023-04-15T05:06:34;6.27;86.10
68578;SHT31;61668;45.388;11.784;2023-04-15T05:09:01;6.28;86.10
68578;SHT31;61668;45.388;11.784;2023-04-15T05:11:27;6.30;86.01
68578;SHT31;61668;45.388;11.784;2023-04-15T05:13:53;6.32;86.00
68578;SHT31;61668;45.388;11.784;2023-04-15T05:16:19;6.35;85.98
68578;SHT31;61668;45.388;11.784;2023-04-15T05:18:45;6.37;85.89
68578;SHT31;61668;45.388;11.784;2023-04-15T05:21:11;6.41;85.84
68578;SHT31;61668;45.388;11.784;2023-04-15T05:23:37;6.42;85.71
68578;SHT31;61668;45.388;11.784;2023-04-15T05:26:03;6.45;85.64
68578;SHT31;61668;45.388;11.784;2023-04-15T05:28:28;6.47;85.58
68578;SHT31;61668;45.388;11.784;2023-04-15T05:30:54;6.49;85.51
68578;SHT31;61668;45.388;11.784;2023-04-15T05:33:20;6.50;85.48
68578;SHT31;61668;45.388;11.784;2023-04-15T05:35:46;6.52;85.40
68578;SHT31;61668;45.388;11.784;2023-04-15T05:38:12;6.55;85.41
68578;SHT31;61668;45.388;11.784;2023-04-15T05:40:37;6.57;85.40
68578;SHT31;61668;45.388;11.784;2023-04-15T05:43:03;6.59;85.39
68578;SHT31;61668;45.388;11.784;2023-04-15T05:45:29;6.62;85.37
68578;SHT31;61668;45.388;11.784;2023-04-15T05:47:55;6.65;85.39
68578;SHT31;61668;45.388;11.784;2023-04-15T05:50:21;6.68;85.44
68578;SHT31;61668;45.388;11.784;2023-04-15T05:52:47;6.72;85.54
68578;SHT31;61668;45.388;11.784;2023-04-15T05:55:12;6.78;85.59
68578;SHT31;61668;45.388;11.784;2023-04-15T05:57:38;6.85;85.60
68578;SHT31;61668;45.388;11.784;2023-04-15T06:00:04;6.92;85.60
68578;SHT31;61668;45.388;11.784;2023-04-15T06:02:31;6.99;85.56
68578;SHT31;61668;45.388;11.784;2023-04-15T06:04:57;7.09;85.56
68578;SHT31;61668;45.388;11.784;2023-04-15T06:07:23;7.18;85.50
68578;SHT31;61668;45.388;11.784;2023-04-15T06:09:49;7.28;85.50
68578;SHT31;61668;45.388;11.784;2023-04-15T06:12:15;7.36;85.45
68578;SHT31;61668;45.388;11.784;2023-04-15T06:14:41;7.44;85.40
68578;SHT31;61668;45.388;11.784;2023-04-15T06:17:07;7.55;85.34
68578;SHT31;61668;45.388;11.784;2023-04-15T06:19:33;7.72;85.21
68578;SHT31;61668;45.388;11.784;2023-04-15T06:22:00;8.02;84.97
68578;SHT31;61668;45.388;11.784;2023-04-15T06:24:27;8.47;84.42
68578;SHT31;61668;45.388;11.784;2023-04-15T06:26:53;8.94;83.60
68578;SHT31;61668;45.388;11.784;2023-04-15T06:29:19;9.48;82.62
68578;SHT31;61668;45.388;11.784;2023-04-15T06:31:48;9.99;81.68
68578;SHT31;61668;45.388;11.784;2023-04-15T06:34:14;10.40;80.58
68578;SHT31;61668;45.388;11.784;2023-04-15T06:36:40;10.42;80.74
68578;SHT31;61668;45.388;11.784;2023-04-15T06:39:06;10.52;80.61
68578;SHT31;61668;45.388;11.784;2023-04-15T06:41:31;10.85;80.02
68578;SHT31;61668;45.388;11.784;2023-04-15T06:43:58;10.95;79.52
68578;SHT31;61668;45.388;11.784;2023-04-15T06:46:24;10.93;79.08
68578;SHT31;61668;45.388;11.784;2023-04-15T06:48:50;10.98;78.96
68578;SHT31;61668;45.388;11.784;2023-04-15T06:51:16;11.18;78.73
68578;SHT31;61668;45.388;11.784;2023-04-15T06:53:42;11.32;77.99
68578;SHT31;61668;45.388;11.784;2023-04-15T06:56:08;11.73;77.03
68578;SHT31;61668;45.388;11.784;2023-04-15T06:58:34;12.08;75.63
68578;SHT31;61668;45.388;11.784;2023-04-15T07:01:00;12.30;75.29
68578;SHT31;61668;45.388;11.784;2023-04-15T07:03:27;12.64;74.17
68578;SHT31;61668;45.388;11.784;2023-04-15T07:05:53;13.31;72.98
68578;SHT31;61668;45.388;11.784;2023-04-15T07:08:19;13.23;73.03
68578;SHT31;61668;45.388;11.784;2023-04-15T07:10:45;13.00;73.58
68578;SHT31;61668;45.388;11.784;2023-04-15T07:13:12;13.08;73.79
68578;SHT31;61668;45.388;11.784;2023-04-15T07:15:38;14.03;71.49
68578;SHT31;61668;45.388;11.784;2023-04-15T07:18:03;14.96;69.12
68578;SHT31;61668;45.388;11.784;2023-04-15T07:20:29;15.72;67.46
68578;SHT31;61668;45.388;11.784;2023-04-15T07:22:55;15.35;68.52
68578;SHT31;61668;45.388;11.784;2023-04-15T07:25:21;14.86;69.22
68578;SHT31;61668;45.388;11.784;2023-04-15T07:27:47;14.63;69.86
68578;SHT31;61668;45.388;11.784;2023-04-15T07:30:13;15.24;68.47
68578;SHT31;61668;45.388;11.784;2023-04-15T07:32:38;16.64;65.89
68578;SHT31;61668;45.388;11.784;2023-04-15T07:35:05;17.86;63.48
68578;SHT31;61668;45.388;11.784;2023-04-15T07:37:31;18.85;61.78
68578;SHT31;61668;45.388;11.784;2023-04-15T07:39:57;19.64;60.41
68578;SHT31;61668;45.388;11.784;2023-04-15T07:42:23;20.23;58.32
68578;SHT31;61668;45.388;11.784;2023-04-15T07:44:50;20.26;57.32
68578;SHT31;61668;45.388;11.784;2023-04-15T07:47:16;19.30;58.50
68578;SHT31;61668;45.388;11.784;2023-04-15T07:49:42;18.47;59.67
68578;SHT31;61668;45.388;11.784;2023-04-15T07:52:08;18.01;61.45
68578;SHT31;61668;45.388;11.784;2023-04-15T07:54:34;17.92;61.47
68578;SHT31;61668;45.388;11.784;2023-04-15T07:56:59;17.86;60.51
68578;SHT31;61668;45.388;11.784;2023-04-15T07:59:25;17.43;61.44
68578;SHT31;61668;45.388;11.784;2023-04-15T08:01:54;17.21;61.80
68578;SHT31;61668;45.388;11.784;2023-04-15T08:04:19;17.39;62.00
68578;SHT31;61668;45.388;11.784;2023-04-15T08:06:45;17.36;62.16
68578;SHT31;61668;45.388;11.784;2023-04-15T08:09:12;18.43;60.70
68578;SHT31;61668;45.388;11.784;2023-04-15T08:11:39;19.88;58.98
68578;SHT31;61668;45.388;11.784;2023-04-15T08:14:06;19.62;58.81
68578;SHT31;61668;45.388;11.784;2023-04-15T08:16:32;19.14;59.59
68578;SHT31;61668;45.388;11.784;2023-04-15T08:18:58;19.39;57.91
68578;SHT31;61668;45.388;11.784;2023-04-15T08:21:23;19.31;57.88
68578;SHT31;61668;45.388;11.784;2023-04-15T08:23:50;20.19;56.52
68578;SHT31;61668;45.388;11.784;2023-04-15T08:26:18;20.22;55.93
68578;SHT31;61668;45.388;11.784;2023-04-15T08:28:45;19.92;56.84
68578;SHT31;61668;45.388;11.784;2023-04-15T08:31:11;19.91;55.53
68578;SHT31;61668;45.388;11.784;2023-04-15T08:33:39;19.70;55.67
68578;SHT31;61668;45.388;11.784;2023-04-15T08:36:04;19.38;56.43
68578;SHT31;61668;45.388;11.784;2023-04-15T08:38:31;19.12;57.03
68578;SHT31;61668;45.388;11.784;2023-04-15T08:40:59;19.17;56.40
68578;SHT31;61668;45.388;11.784;2023-04-15T08:43:33;19.52;55.72
68578;SHT31;61668;45.388;11.784;2023-04-15T08:46:00;19.30;56.07
68578;SHT31;61668;45.388;11.784;2023-04-15T08:48:28;18.69;57.02
68578;SHT31;61668;45.388;11.784;2023-04-15T08:50:57;18.27;58.06
68578;SHT31;61668;45.388;11.784;2023-04-15T08:53:23;17.83;58.84
68578;SHT31;61668;45.388;11.784;2023-04-15T08:55:52;17.50;59.81
68578;SHT31;61668;45.388;11.784;2023-04-15T08:58:22;17.31;60.54
68578;SHT31;61668;45.388;11.784;2023-04-15T09:00:48;17.20;60.71
68578;SHT31;61668;45.388;11.784;2023-04-15T09:03:14;17.77;60.58
68578;SHT31;61668;45.388;11.784;2023-04-15T09:05:41;18.07;59.50
68578;SHT31;61668;45.388;11.784;2023-04-15T09:08:08;17.94;59.48
68578;SHT31;61668;45.388;11.784;2023-04-15T09:10:34;18.50;58.89
68578;SHT31;61668;45.388;11.784;2023-04-15T09:13:00;18.89;57.42
68578;SHT31;61668;45.388;11.784;2023-04-15T09:15:27;18.99;57.11
68578;SHT31;61668;45.388;11.784;2023-04-15T09:17:54;19.48;56.23
68578;SHT31;61668;45.388;11.784;2023-04-15T09:20:21;19.52;56.08
68578;SHT31;61668;45.388;11.784;2023-04-15T09:22:47;19.37;56.33
68578;SHT31;61668;45.388;11.784;2023-04-15T09:30:16;19.76;55.39
68578;SHT31;61668;45.388;11.784;2023-04-15T09:32:53;19.86;54.83
68578;SHT31;61668;45.388;11.784;2023-04-15T09:35:22;19.53;55.24
68578;SHT31;61668;45.388;11.784;2023-04-15T09:37:49;19.18;55.60
68578;SHT31;61668;45.388;11.784;2023-04-15T09:40:32;18.96;56.10
68578;SHT31;61668;45.388;11.784;2023-04-15T09:43:06;19.09;56.32
68578;SHT31;61668;45.388;11.784;2023-04-15T09:45:36;19.34;55.71
68578;SHT31;61668;45.388;11.784;2023-04-15T09:50:45;18.96;55.85
68578;SHT31;61668;45.388;11.784;2023-04-15T09:53:16;19.26;55.71
68578;SHT31;61668;45.388;11.784;2023-04-15T09:55:45;19.19;55.04
68578;SHT31;61668;45.388;11.784;2023-04-15T10:00:52;19.00;54.04
68578;SHT31;61668;45.388;11.784;2023-04-15T10:03:27;18.92;54.77
68578;SHT31;61668;45.388;11.784;2023-04-15T10:05:56;19.09;54.01
68578;SHT31;61668;45.388;11.784;2023-04-15T10:08:25;19.22;54.81
68578;SHT31;61668;45.388;11.784;2023-04-15T10:10:53;19.33;54.72
68578;SHT31;61668;45.388;11.784;2023-04-15T10:13:24;19.55;54.31
68578;SHT31;61668;45.388;11.784;2023-04-15T10:18:31;19.77;53.71
68578;SHT31;61668;45.388;11.784;2023-04-15T10:21:00;19.59;53.47
68578;SHT31;61668;45.388;11.784;2023-04-15T10:23:26;19.36;52.88
68578;SHT31;61668;45.388;11.784;2023-04-15T10:25:52;19.21;53.48
68578;SHT31;61668;45.388;11.784;2023-04-15T10:28:20;19.32;53.61
68578;SHT31;61668;45.388;11.784;2023-04-15T10:30:49;19.47;52.97
68578;SHT31;61668;45.388;11.784;2023-04-15T10:33:17;19.58;53.12
68578;SHT31;61668;45.388;11.784;2023-04-15T10:35:47;19.76;52.16
68578;SHT31;61668;45.388;11.784;2023-04-15T10:41:19;19.55;50.90
68578;SHT31;61668;45.388;11.784;2023-04-15T10:43:51;19.37;51.21
68578;SHT31;61668;45.388;11.784;2023-04-15T10:46:18;19.46;50.99
68578;SHT31;61668;45.388;11.784;2023-04-15T10:48:50;19.60;50.50
68578;SHT31;61668;45.388;11.784;2023-04-15T10:51:28;19.68;50.22
68578;SHT31;61668;45.388;11.784;2023-04-15T10:53:56;19.58;50.86
68578;SHT31;61668;45.388;11.784;2023-04-15T10:56:25;19.64;51.35
68578;SHT31;61668;45.388;11.784;2023-04-15T10:58:54;19.77;51.59
68578;SHT31;61668;45.388;11.784;2023-04-15T11:01:26;19.95;51.35
68578;SHT31;61668;45.388;11.784;2023-04-15T11:07:32;19.66;50.56
68578;SHT31;61668;45.388;11.784;2023-04-15T11:12:42;19.55;50.74
68578;SHT31;61668;45.388;11.784;2023-04-15T11:20:43;19.19;49.72
68578;SHT31;61668;45.388;11.784;2023-04-15T11:26:06;18.77;49.70
68578;SHT31;61668;45.388;11.784;2023-04-15T11:28:34;18.65;49.57
68578;SHT31;61668;45.388;11.784;2023-04-15T11:31:05;18.77;50.36
68578;SHT31;61668;45.388;11.784;2023-04-15T11:33:36;18.95;49.95
68578;SHT31;61668;45.388;11.784;2023-04-15T11:36:04;19.14;49.61
68578;SHT31;61668;45.388;11.784;2023-04-15T11:38:30;19.30;49.60
68578;SHT31;61668;45.388;11.784;2023-04-15T11:40:56;19.27;49.28
68578;SHT31;61668;45.388;11.784;2023-04-15T11:43:22;19.16;49.28
68578;SHT31;61668;45.388;11.784;2023-04-15T11:45:58;19.14;49.13
68578;SHT31;61668;45.388;11.784;2023-04-15T11:48:27;19.30;49.69
68578;SHT31;61668;45.388;11.784;2023-04-15T11:50:59;19.43;48.37
68578;SHT31;61668;45.388;11.784;2023-04-15T11:56:15;19.47;49.29
68578;SHT31;61668;45.388;11.784;2023-04-15T11:58:43;19.57;49.32
68578;SHT31;61668;45.388;11.784;2023-04-15T12:01:10;19.42;48.88
68578;SHT31;61668;45.388;11.784;2023-04-15T12:03:46;19.26;48.94
68578;SHT31;61668;45.388;11.784;2023-04-15T12:11:28;18.83;50.20
68578;SHT31;61668;45.388;11.784;2023-04-15T12:14:25;18.81;50.24
68578;SHT31;61668;45.388;11.784;2023-04-15T12:16:59;18.77;49.81
68578;SHT31;61668;45.388;11.784;2023-04-15T12:19:34;18.92;49.64
68578;SHT31;61668;45.388;11.784;2023-04-15T12:22:16;19.14;49.56
68578;SHT31;61668;45.388;11.784;2023-04-15T12:24:42;19.38;48.97
68578;SHT31;61668;45.388;11.784;2023-04-15T12:27:12;19.58;48.82
68578;SHT31;61668;45.388;11.784;2023-04-15T12:29:40;19.71;47.88
68578;SHT31;61668;45.388;11.784;2023-04-15T12:32:08;19.65;47.80
68578;SHT31;61668;45.388;11.784;2023-04-15T12:34:50;19.66;47.88
68578;SHT31;61668;45.388;11.784;2023-04-15T12:37:26;19.77;47.69
68578;SHT31;61668;45.388;11.784;2023-04-15T12:39:52;19.85;46.82
68578;SHT31;61668;45.388;11.784;2023-04-15T12:42:18;19.89;46.81
68578;SHT31;61668;45.388;11.784;2023-04-15T12:44:44;19.88;45.63
68578;SHT31;61668;45.388;11.784;2023-04-15T12:47:11;19.73;44.26
68578;SHT31;61668;45.388;11.784;2023-04-15T12:49:37;19.64;44.69
68578;SHT31;61668;45.388;11.784;2023-04-15T12:52:03;19.66;45.14
68578;SHT31;61668;45.388;11.784;2023-04-15T12:54:30;19.74;44.97
68578;SHT31;61668;45.388;11.784;2023-04-15T12:56:56;19.85;45.15
68578;SHT31;61668;45.388;11.784;2023-04-15T12:59:23;19.93;44.31
68578;SHT31;61668;45.388;11.784;2023-04-15T13:01:50;20.01;43.88
68578;SHT31;61668;45.388;11.784;2023-04-15T13:04:17;20.04;42.93
68578;SHT31;61668;45.388;11.784;2023-04-15T13:06:44;20.07;42.46
68578;SHT31;61668;45.388;11.784;2023-04-15T13:09:10;20.10;42.90
68578;SHT31;61668;45.388;11.784;2023-04-15T13:11:36;20.09;43.48
68578;SHT31;61668;45.388;11.784;2023-04-15T13:14:05;20.06;43.18
68578;SHT31;61668;45.388;11.784;2023-04-15T13:16:33;20.01;43.13
68578;SHT31;61668;45.388;11.784;2023-04-15T13:19:00;19.96;43.77
68578;SHT31;61668;45.388;11.784;2023-04-15T13:21:28;19.88;44.06
68578;SHT31;61668;45.388;11.784;2023-04-15T13:23:56;19.85;44.89
68578;SHT31;61668;45.388;11.784;2023-04-15T13:26:22;19.80;45.22
68578;SHT31;61668;45.388;11.784;2023-04-15T13:28:47;19.77;44.32
68578;SHT31;61668;45.388;11.784;2023-04-15T13:31:13;19.67;43.97
68578;SHT31;61668;45.388;11.784;2023-04-15T13:33:39;19.58;44.25
68578;SHT31;61668;45.388;11.784;2023-04-15T13:36:05;19.49;43.73
68578;SHT31;61668;45.388;11.784;2023-04-15T13:38:31;19.49;43.94
68578;SHT31;61668;45.388;11.784;2023-04-15T13:40:57;19.49;44.21
68578;SHT31;61668;45.388;11.784;2023-04-15T13:43:23;19.48;45.09
68578;SHT31;61668;45.388;11.784;2023-04-15T13:45:48;19.42;48.19
68578;SHT31;61668;45.388;11.784;2023-04-15T13:48:14;19.28;50.09
68578;SHT31;61668;45.388;11.784;2023-04-15T13:50:40;19.10;50.67
68578;SHT31;61668;45.388;11.784;2023-04-15T13:53:09;18.89;51.17
68578;SHT31;61668;45.388;11.784;2023-04-15T13:55:36;18.73;52.11
68578;SHT31;61668;45.388;11.784;2023-04-15T13:58:05;18.55;52.36
68578;SHT31;61668;45.388;11.784;2023-04-15T14:00:35;18.36;52.84
68578;SHT31;61668;45.388;11.784;2023-04-15T14:03:01;18.26;53.16
68578;SHT31;61668;45.388;11.784;2023-04-15T14:05:27;18.23;53.50
68578;SHT31;61668;45.388;11.784;2023-04-15T14:07:53;18.27;53.60
68578;SHT31;61668;45.388;11.784;2023-04-15T14:10:19;18.32;53.36
68578;SHT31;61668;45.388;11.784;2023-04-15T14:12:45;18.38;53.03
68578;SHT31;61668;45.388;11.784;2023-04-15T14:15:10;18.39;52.73
68578;SHT31;61668;45.388;11.784;2023-04-15T14:17:36;18.34;52.18
68578;SHT31;61668;45.388;11.784;2023-04-15T14:20:02;18.29;52.20
68578;SHT31;61668;45.388;11.784;2023-04-15T14:22:31;18.27;52.11
68578;SHT31;61668;45.388;11.784;2023-04-15T14:24:57;18.25;51.89
68578;SHT31;61668;45.388;11.784;2023-04-15T14:27:23;18.25;51.60
68578;SHT31;61668;45.388;11.784;2023-04-15T14:29:48;18.27;51.14
68578;SHT31;61668;45.388;11.784;2023-04-15T14:32:14;18.31;51.26
68578;SHT31;61668;45.388;11.784;2023-04-15T14:34:40;18.35;50.74
68578;SHT31;61668;45.388;11.784;2023-04-15T14:37:05;18.40;50.62
68578;SHT31;61668;45.388;11.784;2023-04-15T14:39:31;18.42;50.47
68578;SHT31;61668;45.388;11.784;2023-04-15T14:41:57;18.42;50.57
68578;SHT31;61668;45.388;11.784;2023-04-15T14:44:23;18.41;50.65
68578;SHT31;61668;45.388;11.784;2023-04-15T14:46:49;18.40;50.42
68578;SHT31;61668;45.388;11.784;2023-04-15T14:49:16;18.37;50.25
68578;SHT31;61668;45.388;11.784;2023-04-15T14:51:42;18.34;50.12
68578;SHT31;61668;45.388;11.784;2023-04-15T14:54:07;18.31;49.89
68578;SHT31;61668;45.388;11.784;2023-04-15T14:56:33;18.28;49.62
68578;SHT31;61668;45.388;11.784;2023-04-15T14:58:59;18.21;48.71
68578;SHT31;61668;45.388;11.784;2023-04-15T15:01:25;18.13;49.04
68578;SHT31;61668;45.388;11.784;2023-04-15T15:03:51;18.07;48.94
68578;SHT31;61668;45.388;11.784;2023-04-15T15:06:17;17.97;48.68
68578;SHT31;61668;45.388;11.784;2023-04-15T15:08:46;17.88;48.73
68578;SHT31;61668;45.388;11.784;2023-04-15T15:11:13;17.81;48.62
68578;SHT31;61668;45.388;11.784;2023-04-15T15:13:40;17.75;48.90
68578;SHT31;61668;45.388;11.784;2023-04-15T15:16:06;17.70;48.58
68578;SHT31;61668;45.388;11.784;2023-04-15T15:18:31;17.64;47.97
68578;SHT31;61668;45.388;11.784;2023-04-15T15:20:57;17.55;48.03
68578;SHT31;61668;45.388;11.784;2023-04-15T15:23:23;17.49;48.07
68578;SHT31;61668;45.388;11.784;2023-04-15T15:25:48;17.44;47.51
68578;SHT31;61668;45.388;11.784;2023-04-15T15:28:14;17.40;47.73
68578;SHT31;61668;45.388;11.784;2023-04-15T15:30:40;17.34;48.10
68578;SHT31;61668;45.388;11.784;2023-04-15T15:33:06;17.29;47.98
68578;SHT31;61668;45.388;11.784;2023-04-15T15:35:32;17.24;47.98
68578;SHT31;61668;45.388;11.784;2023-04-15T15:37:58;17.15;48.05
68578;SHT31;61668;45.388;11.784;2023-04-15T15:40:25;17.00;47.86
68578;SHT31;61668;45.388;11.784;2023-04-15T15:42:51;16.89;48.30
68578;SHT31;61668;45.388;11.784;2023-04-15T15:45:17;16.80;48.74
68578;SHT31;61668;45.388;11.784;2023-04-15T15:47:43;16.72;48.90
68578;SHT31;61668;45.388;11.784;2023-04-15T15:50:09;16.62;48.48
68578;SHT31;61668;45.388;11.784;2023-04-15T15:52:35;16.55;48.80
68578;SHT31;61668;45.388;11.784;2023-04-15T15:55:02;16.51;49.24
68578;SHT31;61668;45.388;11.784;2023-04-15T15:57:28;16.47;48.79
68578;SHT31;61668;45.388;11.784;2023-04-15T15:59:54;16.42;48.31